• Join FlightAware (Why Join?)
  • Login
  • US Flag 
03:53PM EST


 

Airport Tracker/Info


-or-


 

Live Flight TrackerFlight Track Log ✈ N5237Q ✈ 15-Aug-2014 ✈ KFNT - KFKS

Flight Track Log - Related Links

Times and Time Zones

All times are in EDT time to prevent confusion due to time zone crossing. See the N5237Q flight status page for this flight to view local times or setup timezone preferences in your user account.

Time Position Orientation Groundspeed Altitude Reporting Facility
EDT Latitude Longitude Course Direction KTS MPH feet Rate Location/Type
05:16PM 42.9706 -83.7853 338° Northwest 56 64 1,900  Level Cleveland Center
05:17PM 42.9839 -83.8000 321° Northwest 58 67 2,400 480 Climbing Cleveland Center
05:18PM 42.9969 -83.8131 324° Northwest 57 66 3,000 480 Climbing Cleveland Center
05:19PM 43.0103 -83.8267 323° Northwest 57 66 3,500 420 Climbing Cleveland Center
05:20PM 43.0818 -83.8084 338° Northwest  Level FlightAware Approximate
05:20PM 43.0231 -83.8389 325° Northwest 56 64 3,900  Level Cleveland Center
05:21PM 43.1020 -83.8196 338° Northwest  Level FlightAware Approximate
05:21PM 43.0381 -83.8569 319° Northwest 71 82 4,000  Level Cleveland Center
05:22PM 43.0519 -83.8739 318° Northwest 71 82 4,100  Climbing Cleveland Center
05:23PM 43.0689 -83.8942 319° Northwest 74 85 4,100 -60 Level Cleveland Center
05:24PM 43.0861 -83.9181 315° West 82 94 4,000 -120 Descending Cleveland Center
05:25PM 43.1036 -83.9411 316° Northwest 83 96 3,900 -60 Descending Cleveland Center
05:26PM 43.1217 -83.9631 318° Northwest 83 96 3,900 -60 Level Cleveland Center
05:27PM 43.1414 -83.9833 323° Northwest 84 97 3,800 -60 Descending Cleveland Center
05:28PM 43.1611 -84.0011 327° Northwest 83 96 3,800 -60 Level Cleveland Center
05:29PM 43.1800 -84.0200 324° Northwest 81 93 3,700 60 Descending Cleveland Center
05:30PM 43.1964 -84.0339 328° Northwest 74 85 4,000 120 Climbing Cleveland Center
05:31PM 43.2133 -84.0589 313° West 81 93 4,000  Level Cleveland Center
05:32PM 43.2289 -84.0831 311° West 84 97 4,000 -60 Level Cleveland Center
05:33PM 43.2492 -84.1067 320° Northwest 85 98 3,900 -60 Descending Cleveland Center
05:34PM 43.2664 -84.1275 319° Northwest 86 99 3,900  Level Cleveland Center
05:35PM 43.2839 -84.1486 319° Northwest 83 96 3,900  Level Cleveland Center
05:36PM 43.3003 -84.1689 318° Northwest 82 94 3,900  Level Cleveland Center
05:37PM 43.3178 -84.1908 318° Northwest 82 94 4,000  Climbing Cleveland Center
05:38PM 43.3361 -84.2125 319° Northwest 82 94 4,000 -60 Level Cleveland Center
05:39PM 43.3489 -84.2358 307° West 81 93 3,900 -60 Descending Cleveland Center
05:40PM 43.3672 -84.2583 318° Northwest 81 93 3,900  Level Cleveland Center
05:42PM 43.3825 -84.2772 318° Northwest 80 92 3,900  Level Cleveland Center
05:43PM 43.3992 -84.3006 315° West 80 92 3,900  Level Cleveland Center
05:44PM 43.4158 -84.3225 316° Northwest 82 94 3,900  Level Cleveland Center
05:45PM 43.4333 -84.3425 320° Northwest 81 93 4,000  Climbing Cleveland Center
05:46PM 43.4536 -84.3583 330° Northwest 81 93 3,900  Descending Cleveland Center
05:47PM 43.4708 -84.3769 322° Northwest 77 89 4,000  Climbing Cleveland Center
05:48PM 43.4894 -84.3969 322° Northwest 80 92 4,000  Level Cleveland Center
05:49PM 43.5081 -84.4167 322° Northwest 80 92 4,000  Level Cleveland Center
05:50PM 43.5244 -84.4414 312° West 82 94 4,000 -60 Level Cleveland Center
05:51PM 43.5417 -84.4647 316° Northwest 83 96 3,900 -60 Descending Cleveland Center
05:52PM 43.5589 -84.4872 317° Northwest 83 96 3,900 -60 Level Cleveland Center
05:53PM 43.5764 -84.5033 326° Northwest 82 94 3,800  Descending Cleveland Center
05:54PM 43.5936 -84.5181 328° Northwest 73 84 4,000 60 Climbing Cleveland Center
05:55PM 43.6106 -84.5392 318° Northwest 77 89 4,000  Level Cleveland Center
05:56PM 43.6267 -84.5631 313° West 79 91 4,100  Climbing Cleveland Center
05:57PM 43.6425 -84.5858 314° West 79 91 4,000 -60 Descending Cleveland Center
05:58PM 43.6603 -84.6081 318° Northwest 83 96 4,000 -60 Level Cleveland Center
05:59PM 43.6806 -84.6281 325° Northwest 83 96 3,900 -60 Descending Cleveland Center
06:00PM 43.6989 -84.6511 318° Northwest 84 97 3,900  Level Cleveland Center
06:01PM 43.7150 -84.6728 316° Northwest 84 97 3,900  Level Cleveland Center
06:02PM 43.7333 -84.6903 325° Northwest 81 93 3,900  Level Cleveland Center
06:03PM 43.7511 -84.7106 321° Northwest 81 93 4,000  Climbing Cleveland Center
06:04PM 43.7678 -84.7333 315° West 80 92 4,000  Level Cleveland Center
06:05PM 43.7867 -84.7583 316° Northwest 85 98 4,000  Level Cleveland Center
06:06PM 43.8064 -84.7800 322° Northwest 87 100 4,000  Level Cleveland Center
06:07PM 43.8242 -84.8000 321° Northwest 83 96 4,000 -60 Level Cleveland Center
06:09PM 43.8606 -84.8400 335° Northwest 83 96 3,900 -120 Descending Cleveland Center
06:11PM 43.8792 -84.8614 320° Northwest 83 96 3,800  Descending Cleveland Center
06:12PM 43.8989 -84.8792 327° Northwest 83 96 3,900 60 Climbing Cleveland Center
06:13PM 43.9161 -84.9017 317° Northwest 83 96 4,000  Climbing Cleveland Center
06:13PM 43.9261 -84.9217 305° West 85 98 3,900 -60 Descending Minneapolis Center
06:14PM 43.9422 -84.9425 317° Northwest 83 96 3,900  Level Minneapolis Center
06:16PM 43.9608 -84.9614 324° Northwest 83 96 4,000  Climbing Minneapolis Center
06:17PM 43.9822 -84.9864 320° Northwest 83 96 3,900  Descending Minneapolis Center
06:18PM 43.9997 -85.0072 319° Northwest 83 96 4,000  Climbing Minneapolis Center
06:19PM 44.0158 -85.0294 315° West 83 96 4,000  Level Minneapolis Center
06:20PM 44.0333 -85.0522 317° Northwest 83 96 4,000 -60 Level Minneapolis Center
06:21PM 44.0506 -85.0742 318° Northwest 83 96 3,900 -60 Descending Minneapolis Center
06:22PM 44.0708 -85.0914 329° Northwest 83 96 3,900 -60 Level Minneapolis Center
06:23PM 44.0981 -85.1056 340° North 83 96 3,800  Descending Minneapolis Center
06:24PM 44.1111 -85.1292 308° West 82 94 3,900 120 Climbing Minneapolis Center
06:25PM 44.1197 -85.1578 293° West 81 93 4,100  Climbing Minneapolis Center
06:26PM 44.1342 -85.1828 309° West 81 93 3,900 -180 Descending Minneapolis Center
06:27PM 44.1525 -85.2064 317° Northwest 82 94 3,800 -60 Descending Minneapolis Center
06:28PM 44.1703 -85.2278 319° Northwest 82 94 3,800  Level Minneapolis Center
06:29PM 44.1903 -85.2533 318° Northwest 82 94 3,900 60 Climbing Minneapolis Center
06:30PM 44.2078 -85.2722 322° Northwest 82 94 4,000 60 Climbing Minneapolis Center
06:31PM 44.2269 -85.2892 328° Northwest 82 94 4,100  Climbing Minneapolis Center
06:32PM 44.2447 -85.3081 323° Northwest 82 94 4,100  Level Minneapolis Center
06:33PM 44.2614 -85.3300 317° Northwest 82 94 4,100 -60 Level Minneapolis Center
06:34PM 44.2842 -85.3586 318° Northwest 83 96 4,000 -60 Descending Minneapolis Center
06:35PM 44.3011 -85.3814 316° Northwest 85 98 4,000  Level Minneapolis Center
06:36PM 44.3183 -85.4039 317° Northwest 85 98 4,000  Level Minneapolis Center
06:37PM 44.3356 -85.4256 318° Northwest 85 98 4,000  Level Minneapolis Center
06:38PM 44.3519 -85.4486 315° West 85 98 4,000  Level Minneapolis Center
06:39PM 44.3661 -85.4753 307° West 85 98 4,000 -60 Level Minneapolis Center
06:40PM 44.3775 -85.5092 295° West 84 97 3,900 -120 Descending Minneapolis Center
06:41PM 44.3889 -85.5372 300° West 84 97 3,800  Descending Minneapolis Center
06:42PM 44.4000 -85.5661 298° West 84 97 3,900  Climbing Minneapolis Center
06:43PM 44.4097 -85.5933 297° West 84 97 3,800  Descending Minneapolis Center
06:45PM 44.4192 -85.6189 297° West 80 92 3,900  Climbing Minneapolis Center
06:46PM 44.4306 -85.6458 301° West 80 92 3,900  Level Minneapolis Center
06:47PM 44.4439 -85.6794 299° West 80 92 3,900 -120 Level Minneapolis Center
06:48PM 44.4547 -85.7081 298° West 80 92 3,700 -240 Descending Minneapolis Center
06:49PM 44.4639 -85.7375 294° West 80 92 3,500 -300 Descending Minneapolis Center
06:50PM 44.4742 -85.7667 296° West 81 93 3,200 -180 Descending Minneapolis Center
06:51PM 44.4853 -85.7939 300° West 81 93 3,200 -60 Level Minneapolis Center
06:52PM 44.4983 -85.8244 301° West 81 93 3,100  Descending Minneapolis Center
06:53PM 44.5089 -85.8478 302° West 79 91 3,200  Climbing Minneapolis Center
06:54PM 44.5181 -85.8728 297° West 75 86 3,200 -120 Level Minneapolis Center
06:55PM 44.5269 -85.8997 295° West 75 86 3,000 -180 Descending Minneapolis Center
06:56PM 44.5375 -85.9278 298° West 75 86 2,900 -120 Descending Minneapolis Center
06:57PM 44.5472 -85.9542 297° West 75 86 2,800 -60 Descending Minneapolis Center
06:58PM 44.5597 -85.9864 299° West 75 86 2,800  Level Minneapolis Center
06:59PM 44.5694 -86.0117 298° West 75 86 2,800  Level Minneapolis Center
07:00PM 44.5786 -86.0383 296° West 75 86 2,800  Level Minneapolis Center